sensor_id;sensor_type;location;lat;lon;timestamp;P1;durP1;ratioP1;P2;durP2;ratioP2
2602;SDS011;1311;47.966;7.958;2023-08-06T00:00:39;2.37;;;1.50;;
2602;SDS011;1311;47.966;7.958;2023-08-06T00:03:06;2.27;;;1.70;;
2602;SDS011;1311;47.966;7.958;2023-08-06T00:05:34;2.17;;;1.40;;
2602;SDS011;1311;47.966;7.958;2023-08-06T00:08:01;2.57;;;1.70;;
2602;SDS011;1311;47.966;7.958;2023-08-06T00:10:28;3.20;;;1.90;;
2602;SDS011;1311;47.966;7.958;2023-08-06T00:12:53;2.47;;;1.60;;
2602;SDS011;1311;47.966;7.958;2023-08-06T00:15:20;4.17;;;2.30;;
2602;SDS011;1311;47.966;7.958;2023-08-06T00:17:48;3.90;;;1.93;;
2602;SDS011;1311;47.966;7.958;2023-08-06T00:20:14;1.90;;;1.40;;
2602;SDS011;1311;47.966;7.958;2023-08-06T00:22:42;2.10;;;1.50;;
2602;SDS011;1311;47.966;7.958;2023-08-06T00:25:09;2.93;;;1.50;;
2602;SDS011;1311;47.966;7.958;2023-08-06T00:27:36;1.90;;;1.70;;
2602;SDS011;1311;47.966;7.958;2023-08-06T00:30:03;2.57;;;1.80;;
2602;SDS011;1311;47.966;7.958;2023-08-06T00:32:31;4.53;;;1.90;;
2602;SDS011;1311;47.966;7.958;2023-08-06T00:34:57;3.10;;;1.80;;
2602;SDS011;1311;47.966;7.958;2023-08-06T00:37:24;2.73;;;1.80;;
2602;SDS011;1311;47.966;7.958;2023-08-06T00:39:52;3.73;;;1.30;;
2602;SDS011;1311;47.966;7.958;2023-08-06T00:42:19;2.83;;;1.77;;
2602;SDS011;1311;47.966;7.958;2023-08-06T00:44:47;4.27;;;2.07;;
2602;SDS011;1311;47.966;7.958;2023-08-06T00:47:14;2.40;;;1.93;;
2602;SDS011;1311;47.966;7.958;2023-08-06T00:49:41;2.10;;;1.60;;
2602;SDS011;1311;47.966;7.958;2023-08-06T00:52:08;1.67;;;1.50;;
2602;SDS011;1311;47.966;7.958;2023-08-06T00:54:35;1.63;;;1.40;;
2602;SDS011;1311;47.966;7.958;2023-08-06T00:57:04;2.70;;;1.13;;
2602;SDS011;1311;47.966;7.958;2023-08-06T00:59:33;2.50;;;1.47;;
2602;SDS011;1311;47.966;7.958;2023-08-06T01:02:00;3.43;;;1.63;;
2602;SDS011;1311;47.966;7.958;2023-08-06T01:04:27;2.50;;;1.80;;
2602;SDS011;1311;47.966;7.958;2023-08-06T01:06:56;2.10;;;1.50;;
2602;SDS011;1311;47.966;7.958;2023-08-06T01:09:31;7.97;;;1.83;;
2602;SDS011;1311;47.966;7.958;2023-08-06T01:12:09;2.20;;;1.63;;
2602;SDS011;1311;47.966;7.958;2023-08-06T01:14:46;2.23;;;1.43;;
2602;SDS011;1311;47.966;7.958;2023-08-06T01:17:20;2.17;;;1.30;;
2602;SDS011;1311;47.966;7.958;2023-08-06T01:19:49;2.97;;;1.33;;
2602;SDS011;1311;47.966;7.958;2023-08-06T01:22:17;2.73;;;1.67;;
2602;SDS011;1311;47.966;7.958;2023-08-06T01:24:45;4.57;;;1.60;;
2602;SDS011;1311;47.966;7.958;2023-08-06T01:27:16;6.30;;;1.50;;
2602;SDS011;1311;47.966;7.958;2023-08-06T01:29:47;1.47;;;1.13;;
2602;SDS011;1311;47.966;7.958;2023-08-06T01:32:22;2.07;;;1.40;;
2602;SDS011;1311;47.966;7.958;2023-08-06T01:34:51;1.73;;;1.30;;
2602;SDS011;1311;47.966;7.958;2023-08-06T01:37:20;3.03;;;1.40;;
2602;SDS011;1311;47.966;7.958;2023-08-06T01:39:47;1.93;;;1.30;;
2602;SDS011;1311;47.966;7.958;2023-08-06T01:42:14;2.03;;;1.27;;
2602;SDS011;1311;47.966;7.958;2023-08-06T01:44:41;3.07;;;1.27;;
2602;SDS011;1311;47.966;7.958;2023-08-06T01:47:07;3.30;;;1.30;;
2602;SDS011;1311;47.966;7.958;2023-08-06T01:49:34;2.83;;;1.40;;
2602;SDS011;1311;47.966;7.958;2023-08-06T01:52:01;2.30;;;1.60;;
2602;SDS011;1311;47.966;7.958;2023-08-06T01:54:29;1.47;;;1.13;;
2602;SDS011;1311;47.966;7.958;2023-08-06T01:56:56;4.10;;;1.47;;
2602;SDS011;1311;47.966;7.958;2023-08-06T01:59:23;2.23;;;1.33;;
2602;SDS011;1311;47.966;7.958;2023-08-06T02:01:50;2.43;;;1.23;;
2602;SDS011;1311;47.966;7.958;2023-08-06T02:04:17;1.67;;;1.17;;
2602;SDS011;1311;47.966;7.958;2023-08-06T02:06:43;4.30;;;1.60;;
2602;SDS011;1311;47.966;7.958;2023-08-06T02:09:10;4.07;;;1.40;;
2602;SDS011;1311;47.966;7.958;2023-08-06T02:11:38;6.70;;;2.10;;
2602;SDS011;1311;47.966;7.958;2023-08-06T02:14:05;5.17;;;1.50;;
2602;SDS011;1311;47.966;7.958;2023-08-06T02:16:32;3.43;;;1.50;;
2602;SDS011;1311;47.966;7.958;2023-08-06T02:18:58;2.33;;;1.30;;
2602;SDS011;1311;47.966;7.958;2023-08-06T02:21:25;5.23;;;1.50;;
2602;SDS011;1311;47.966;7.958;2023-08-06T02:23:52;2.03;;;1.27;;
2602;SDS011;1311;47.966;7.958;2023-08-06T02:26:18;2.03;;;1.70;;
2602;SDS011;1311;47.966;7.958;2023-08-06T02:28:46;2.33;;;1.13;;
2602;SDS011;1311;47.966;7.958;2023-08-06T02:31:13;2.80;;;1.20;;
2602;SDS011;1311;47.966;7.958;2023-08-06T02:33:40;1.50;;;1.00;;
2602;SDS011;1311;47.966;7.958;2023-08-06T02:36:07;3.70;;;1.43;;
2602;SDS011;1311;47.966;7.958;2023-08-06T02:38:33;6.83;;;1.77;;
2602;SDS011;1311;47.966;7.958;2023-08-06T02:41:01;2.63;;;1.50;;
2602;SDS011;1311;47.966;7.958;2023-08-06T02:43:28;1.63;;;1.20;;
2602;SDS011;1311;47.966;7.958;2023-08-06T02:45:57;5.13;;;1.37;;
2602;SDS011;1311;47.966;7.958;2023-08-06T02:48:24;2.30;;;1.20;;
2602;SDS011;1311;47.966;7.958;2023-08-06T02:50:51;3.27;;;1.20;;
2602;SDS011;1311;47.966;7.958;2023-08-06T02:53:18;1.40;;;0.93;;
2602;SDS011;1311;47.966;7.958;2023-08-06T02:55:45;1.50;;;0.57;;
2602;SDS011;1311;47.966;7.958;2023-08-06T02:58:13;1.60;;;0.73;;
2602;SDS011;1311;47.966;7.958;2023-08-06T03:00:40;1.00;;;0.60;;
2602;SDS011;1311;47.966;7.958;2023-08-06T03:03:09;1.37;;;0.50;;
2602;SDS011;1311;47.966;7.958;2023-08-06T03:05:36;1.43;;;0.57;;
2602;SDS011;1311;47.966;7.958;2023-08-06T03:08:03;1.53;;;0.73;;
2602;SDS011;1311;47.966;7.958;2023-08-06T03:10:30;0.57;;;0.43;;
2602;SDS011;1311;47.966;7.958;2023-08-06T03:12:56;1.03;;;0.70;;
2602;SDS011;1311;47.966;7.958;2023-08-06T03:15:24;1.00;;;0.57;;
2602;SDS011;1311;47.966;7.958;2023-08-06T03:17:50;0.50;;;0.40;;
2602;SDS011;1311;47.966;7.958;2023-08-06T03:20:18;0.90;;;0.40;;
2602;SDS011;1311;47.966;7.958;2023-08-06T03:22:45;1.37;;;0.50;;
2602;SDS011;1311;47.966;7.958;2023-08-06T03:25:12;2.30;;;0.50;;
2602;SDS011;1311;47.966;7.958;2023-08-06T03:27:38;0.90;;;0.50;;
2602;SDS011;1311;47.966;7.958;2023-08-06T03:30:06;2.00;;;0.60;;
2602;SDS011;1311;47.966;7.958;2023-08-06T03:32:33;1.30;;;0.53;;
2602;SDS011;1311;47.966;7.958;2023-08-06T03:35:00;1.83;;;0.60;;
2602;SDS011;1311;47.966;7.958;2023-08-06T03:37:28;1.43;;;0.50;;
2602;SDS011;1311;47.966;7.958;2023-08-06T03:39:55;0.70;;;0.40;;
2602;SDS011;1311;47.966;7.958;2023-08-06T03:42:22;0.97;;;0.50;;
2602;SDS011;1311;47.966;7.958;2023-08-06T03:44:49;0.80;;;0.50;;
2602;SDS011;1311;47.966;7.958;2023-08-06T03:47:15;1.37;;;0.60;;
2602;SDS011;1311;47.966;7.958;2023-08-06T03:49:42;1.00;;;0.40;;
2602;SDS011;1311;47.966;7.958;2023-08-06T03:52:09;1.90;;;0.40;;
2602;SDS011;1311;47.966;7.958;2023-08-06T03:54:37;1.60;;;0.40;;
2602;SDS011;1311;47.966;7.958;2023-08-06T03:57:04;1.07;;;0.67;;
2602;SDS011;1311;47.966;7.958;2023-08-06T03:59:31;1.90;;;0.70;;
2602;SDS011;1311;47.966;7.958;2023-08-06T04:01:58;1.60;;;0.97;;
2602;SDS011;1311;47.966;7.958;2023-08-06T04:04:25;1.70;;;0.63;;
2602;SDS011;1311;47.966;7.958;2023-08-06T04:06:51;1.20;;;0.67;;
2602;SDS011;1311;47.966;7.958;2023-08-06T04:09:18;2.63;;;1.30;;
2602;SDS011;1311;47.966;7.958;2023-08-06T04:11:46;3.67;;;1.97;;
2602;SDS011;1311;47.966;7.958;2023-08-06T04:14:13;1.30;;;0.80;;
2602;SDS011;1311;47.966;7.958;2023-08-06T04:16:40;0.77;;;0.50;;
2602;SDS011;1311;47.966;7.958;2023-08-06T04:19:07;3.53;;;0.53;;
2602;SDS011;1311;47.966;7.958;2023-08-06T04:21:33;0.80;;;0.60;;
2602;SDS011;1311;47.966;7.958;2023-08-06T04:24:00;0.60;;;0.40;;
2602;SDS011;1311;47.966;7.958;2023-08-06T04:26:27;1.97;;;0.70;;
2602;SDS011;1311;47.966;7.958;2023-08-06T04:28:55;1.00;;;0.60;;
2602;SDS011;1311;47.966;7.958;2023-08-06T04:31:22;0.63;;;0.47;;
2602;SDS011;1311;47.966;7.958;2023-08-06T04:33:49;1.03;;;0.50;;
2602;SDS011;1311;47.966;7.958;2023-08-06T04:36:15;2.60;;;0.67;;
2602;SDS011;1311;47.966;7.958;2023-08-06T04:38:42;4.00;;;0.77;;
2602;SDS011;1311;47.966;7.958;2023-08-06T04:41:12;3.87;;;0.63;;
2602;SDS011;1311;47.966;7.958;2023-08-06T04:43:39;3.37;;;0.80;;
2602;SDS011;1311;47.966;7.958;2023-08-06T04:46:07;1.53;;;0.50;;
2602;SDS011;1311;47.966;7.958;2023-08-06T04:48:33;2.30;;;0.80;;
2602;SDS011;1311;47.966;7.958;2023-08-06T04:51:00;1.43;;;0.70;;
2602;SDS011;1311;47.966;7.958;2023-08-06T04:53:27;0.87;;;0.50;;
2602;SDS011;1311;47.966;7.958;2023-08-06T04:55:54;4.10;;;0.93;;
2602;SDS011;1311;47.966;7.958;2023-08-06T04:58:20;0.80;;;0.57;;
2602;SDS011;1311;47.966;7.958;2023-08-06T05:00:47;2.00;;;0.60;;
2602;SDS011;1311;47.966;7.958;2023-08-06T05:03:15;1.03;;;0.53;;
2602;SDS011;1311;47.966;7.958;2023-08-06T05:05:42;1.40;;;0.60;;
2602;SDS011;1311;47.966;7.958;2023-08-06T05:08:13;2.70;;;0.70;;
2602;SDS011;1311;47.966;7.958;2023-08-06T05:10:41;1.47;;;0.70;;
2602;SDS011;1311;47.966;7.958;2023-08-06T05:13:08;1.07;;;0.70;;
2602;SDS011;1311;47.966;7.958;2023-08-06T05:15:35;3.90;;;0.60;;
2602;SDS011;1311;47.966;7.958;2023-08-06T05:18:02;2.47;;;0.80;;
2602;SDS011;1311;47.966;7.958;2023-08-06T05:20:30;1.33;;;0.70;;
2602;SDS011;1311;47.966;7.958;2023-08-06T05:22:57;1.13;;;0.60;;
2602;SDS011;1311;47.966;7.958;2023-08-06T05:25:24;1.67;;;0.50;;
2602;SDS011;1311;47.966;7.958;2023-08-06T05:27:51;2.00;;;0.70;;
2602;SDS011;1311;47.966;7.958;2023-08-06T05:30:18;1.53;;;0.60;;
2602;SDS011;1311;47.966;7.958;2023-08-06T05:32:45;0.50;;;0.50;;
2602;SDS011;1311;47.966;7.958;2023-08-06T05:35:11;1.00;;;0.40;;
2602;SDS011;1311;47.966;7.958;2023-08-06T05:37:40;1.10;;;0.70;;
2602;SDS011;1311;47.966;7.958;2023-08-06T05:40:07;2.30;;;0.50;;
2602;SDS011;1311;47.966;7.958;2023-08-06T05:42:34;0.73;;;0.40;;
2602;SDS011;1311;47.966;7.958;2023-08-06T05:45:01;1.83;;;0.53;;
2602;SDS011;1311;47.966;7.958;2023-08-06T05:47:27;0.57;;;0.37;;
2602;SDS011;1311;47.966;7.958;2023-08-06T05:49:54;1.57;;;0.50;;
2602;SDS011;1311;47.966;7.958;2023-08-06T05:52:21;0.50;;;0.40;;
2602;SDS011;1311;47.966;7.958;2023-08-06T05:54:49;0.60;;;0.40;;
2602;SDS011;1311;47.966;7.958;2023-08-06T05:57:16;3.57;;;0.60;;
2602;SDS011;1311;47.966;7.958;2023-08-06T05:59:43;1.43;;;0.40;;
2602;SDS011;1311;47.966;7.958;2023-08-06T06:02:10;1.17;;;0.73;;
2602;SDS011;1311;47.966;7.958;2023-08-06T06:04:36;2.73;;;0.40;;
2602;SDS011;1311;47.966;7.958;2023-08-06T06:07:03;0.50;;;0.30;;
2602;SDS011;1311;47.966;7.958;2023-08-06T06:09:30;0.67;;;0.30;;
2602;SDS011;1311;47.966;7.958;2023-08-06T06:11:58;0.80;;;0.40;;
2602;SDS011;1311;47.966;7.958;2023-08-06T06:14:25;0.50;;;0.47;;
2602;SDS011;1311;47.966;7.958;2023-08-06T06:16:52;0.70;;;0.33;;
2602;SDS011;1311;47.966;7.958;2023-08-06T06:19:19;0.60;;;0.50;;
2602;SDS011;1311;47.966;7.958;2023-08-06T06:21:45;0.60;;;0.40;;
2602;SDS011;1311;47.966;7.958;2023-08-06T06:24:12;1.47;;;0.60;;
2602;SDS011;1311;47.966;7.958;2023-08-06T06:26:39;4.20;;;0.70;;
2602;SDS011;1311;47.966;7.958;2023-08-06T06:29:07;1.27;;;0.47;;
2602;SDS011;1311;47.966;7.958;2023-08-06T06:31:34;0.90;;;0.60;;
2602;SDS011;1311;47.966;7.958;2023-08-06T06:34:01;1.10;;;0.53;;
2602;SDS011;1311;47.966;7.958;2023-08-06T06:36:27;1.03;;;0.60;;
2602;SDS011;1311;47.966;7.958;2023-08-06T06:38:54;0.90;;;0.57;;
2602;SDS011;1311;47.966;7.958;2023-08-06T06:41:21;0.97;;;0.50;;
2602;SDS011;1311;47.966;7.958;2023-08-06T06:43:48;0.70;;;0.37;;
2602;SDS011;1311;47.966;7.958;2023-08-06T06:46:16;0.70;;;0.47;;
2602;SDS011;1311;47.966;7.958;2023-08-06T06:48:42;0.50;;;0.40;;
2602;SDS011;1311;47.966;7.958;2023-08-06T06:51:09;1.90;;;0.40;;
2602;SDS011;1311;47.966;7.958;2023-08-06T06:53:36;1.10;;;0.50;;
2602;SDS011;1311;47.966;7.958;2023-08-06T06:56:03;0.80;;;0.60;;
2602;SDS011;1311;47.966;7.958;2023-08-06T06:58:31;0.40;;;0.40;;
2602;SDS011;1311;47.966;7.958;2023-08-06T07:00:58;0.70;;;0.37;;
2602;SDS011;1311;47.966;7.958;2023-08-06T07:03:26;0.73;;;0.30;;
2602;SDS011;1311;47.966;7.958;2023-08-06T07:05:56;0.50;;;0.30;;
2602;SDS011;1311;47.966;7.958;2023-08-06T07:08:23;0.50;;;0.37;;
2602;SDS011;1311;47.966;7.958;2023-08-06T07:10:50;1.10;;;0.40;;
2602;SDS011;1311;47.966;7.958;2023-08-06T07:13:17;0.67;;;0.30;;
2602;SDS011;1311;47.966;7.958;2023-08-06T07:15:43;0.93;;;0.50;;
2602;SDS011;1311;47.966;7.958;2023-08-06T07:18:10;0.90;;;0.30;;
2602;SDS011;1311;47.966;7.958;2023-08-06T07:20:38;0.80;;;0.30;;
2602;SDS011;1311;47.966;7.958;2023-08-06T07:23:05;2.10;;;0.50;;
2602;SDS011;1311;47.966;7.958;2023-08-06T07:25:31;0.60;;;0.40;;
2602;SDS011;1311;47.966;7.958;2023-08-06T07:27:58;1.03;;;0.40;;
2602;SDS011;1311;47.966;7.958;2023-08-06T07:30:27;1.80;;;0.40;;
2602;SDS011;1311;47.966;7.958;2023-08-06T07:32:54;0.80;;;0.30;;
2602;SDS011;1311;47.966;7.958;2023-08-06T07:35:20;0.50;;;0.40;;
2602;SDS011;1311;47.966;7.958;2023-08-06T07:37:49;0.40;;;0.30;;
2602;SDS011;1311;47.966;7.958;2023-08-06T07:40:15;0.40;;;0.30;;
2602;SDS011;1311;47.966;7.958;2023-08-06T07:42:42;0.70;;;0.40;;
2602;SDS011;1311;47.966;7.958;2023-08-06T07:45:09;0.50;;;0.30;;
2602;SDS011;1311;47.966;7.958;2023-08-06T07:47:36;0.40;;;0.30;;
2602;SDS011;1311;47.966;7.958;2023-08-06T07:50:03;0.50;;;0.30;;
2602;SDS011;1311;47.966;7.958;2023-08-06T07:52:30;1.07;;;0.40;;
2602;SDS011;1311;47.966;7.958;2023-08-06T07:54:58;0.40;;;0.30;;
2602;SDS011;1311;47.966;7.958;2023-08-06T07:57:26;0.90;;;0.30;;
2602;SDS011;1311;47.966;7.958;2023-08-06T07:59:53;0.43;;;0.30;;
2602;SDS011;1311;47.966;7.958;2023-08-06T08:02:20;0.50;;;0.30;;
2602;SDS011;1311;47.966;7.958;2023-08-06T08:04:46;0.50;;;0.30;;
2602;SDS011;1311;47.966;7.958;2023-08-06T08:07:13;0.50;;;0.30;;
2602;SDS011;1311;47.966;7.958;2023-08-06T08:09:40;0.53;;;0.30;;
2602;SDS011;1311;47.966;7.958;2023-08-06T08:12:08;0.50;;;0.30;;
2602;SDS011;1311;47.966;7.958;2023-08-06T08:14:35;0.50;;;0.30;;
2602;SDS011;1311;47.966;7.958;2023-08-06T08:17:02;0.57;;;0.33;;
2602;SDS011;1311;47.966;7.958;2023-08-06T08:19:29;0.50;;;0.30;;
2602;SDS011;1311;47.966;7.958;2023-08-06T08:21:56;0.60;;;0.40;;
2602;SDS011;1311;47.966;7.958;2023-08-06T08:24:23;2.33;;;0.30;;
2602;SDS011;1311;47.966;7.958;2023-08-06T08:26:50;0.50;;;0.30;;
2602;SDS011;1311;47.966;7.958;2023-08-06T08:29:19;0.47;;;0.30;;
2602;SDS011;1311;47.966;7.958;2023-08-06T08:31:46;0.50;;;0.30;;
2602;SDS011;1311;47.966;7.958;2023-08-06T08:34:14;0.70;;;0.33;;
2602;SDS011;1311;47.966;7.958;2023-08-06T08:36:41;1.67;;;0.37;;
2602;SDS011;1311;47.966;7.958;2023-08-06T08:39:07;0.40;;;0.30;;
2602;SDS011;1311;47.966;7.958;2023-08-06T08:41:35;1.23;;;0.40;;
2602;SDS011;1311;47.966;7.958;2023-08-06T08:44:04;0.40;;;0.30;;
2602;SDS011;1311;47.966;7.958;2023-08-06T08:46:35;0.87;;;0.30;;
2602;SDS011;1311;47.966;7.958;2023-08-06T08:49:03;0.50;;;0.30;;
2602;SDS011;1311;47.966;7.958;2023-08-06T08:51:30;0.90;;;0.40;;
2602;SDS011;1311;47.966;7.958;2023-08-06T08:53:57;0.50;;;0.30;;
2602;SDS011;1311;47.966;7.958;2023-08-06T08:56:24;0.50;;;0.30;;
2602;SDS011;1311;47.966;7.958;2023-08-06T08:58:51;0.40;;;0.20;;
2602;SDS011;1311;47.966;7.958;2023-08-06T09:01:20;0.83;;;0.40;;
2602;SDS011;1311;47.966;7.958;2023-08-06T09:03:49;0.73;;;0.30;;
2602;SDS011;1311;47.966;7.958;2023-08-06T09:06:17;0.60;;;0.37;;
2602;SDS011;1311;47.966;7.958;2023-08-06T09:08:47;0.40;;;0.30;;
2602;SDS011;1311;47.966;7.958;2023-08-06T09:11:17;0.60;;;0.30;;
2602;SDS011;1311;47.966;7.958;2023-08-06T09:13:46;0.50;;;0.30;;
2602;SDS011;1311;47.966;7.958;2023-08-06T09:16:14;0.40;;;0.30;;
2602;SDS011;1311;47.966;7.958;2023-08-06T09:18:40;0.50;;;0.30;;
2602;SDS011;1311;47.966;7.958;2023-08-06T09:21:10;0.80;;;0.40;;
2602;SDS011;1311;47.966;7.958;2023-08-06T09:23:41;1.57;;;0.50;;
2602;SDS011;1311;47.966;7.958;2023-08-06T09:26:10;0.73;;;0.30;;
2602;SDS011;1311;47.966;7.958;2023-08-06T09:28:38;2.70;;;0.33;;
2602;SDS011;1311;47.966;7.958;2023-08-06T09:31:08;0.80;;;0.30;;
2602;SDS011;1311;47.966;7.958;2023-08-06T09:33:35;0.60;;;0.37;;
2602;SDS011;1311;47.966;7.958;2023-08-06T09:36:07;0.60;;;0.30;;
2602;SDS011;1311;47.966;7.958;2023-08-06T09:38:37;0.70;;;0.20;;
2602;SDS011;1311;47.966;7.958;2023-08-06T09:41:05;1.07;;;0.40;;
2602;SDS011;1311;47.966;7.958;2023-08-06T09:43:39;0.40;;;0.30;;
2602;SDS011;1311;47.966;7.958;2023-08-06T09:46:10;1.00;;;0.30;;
2602;SDS011;1311;47.966;7.958;2023-08-06T09:48:39;0.40;;;0.20;;
2602;SDS011;1311;47.966;7.958;2023-08-06T09:51:06;0.50;;;0.30;;
2602;SDS011;1311;47.966;7.958;2023-08-06T09:53:37;0.40;;;0.30;;
2602;SDS011;1311;47.966;7.958;2023-08-06T09:56:05;0.50;;;0.30;;
2602;SDS011;1311;47.966;7.958;2023-08-06T09:58:32;1.90;;;0.43;;
2602;SDS011;1311;47.966;7.958;2023-08-06T10:00:59;0.40;;;0.30;;
2602;SDS011;1311;47.966;7.958;2023-08-06T10:03:27;0.90;;;0.30;;
2602;SDS011;1311;47.966;7.958;2023-08-06T10:05:56;1.60;;;0.30;;
2602;SDS011;1311;47.966;7.958;2023-08-06T10:08:28;0.50;;;0.30;;
2602;SDS011;1311;47.966;7.958;2023-08-06T10:10:55;1.17;;;0.50;;
2602;SDS011;1311;47.966;7.958;2023-08-06T10:13:22;1.00;;;0.50;;
2602;SDS011;1311;47.966;7.958;2023-08-06T10:15:50;0.50;;;0.30;;
2602;SDS011;1311;47.966;7.958;2023-08-06T10:18:17;0.80;;;0.40;;
2602;SDS011;1311;47.966;7.958;2023-08-06T10:20:47;0.77;;;0.40;;
2602;SDS011;1311;47.966;7.958;2023-08-06T10:23:14;0.63;;;0.30;;
2602;SDS011;1311;47.966;7.958;2023-08-06T10:25:43;0.80;;;0.37;;
2602;SDS011;1311;47.966;7.958;2023-08-06T10:28:20;0.50;;;0.30;;
2602;SDS011;1311;47.966;7.958;2023-08-06T10:30:47;0.40;;;0.30;;
2602;SDS011;1311;47.966;7.958;2023-08-06T10:33:15;1.03;;;0.40;;
2602;SDS011;1311;47.966;7.958;2023-08-06T10:35:42;0.50;;;0.30;;
2602;SDS011;1311;47.966;7.958;2023-08-06T10:38:10;0.53;;;0.40;;
2602;SDS011;1311;47.966;7.958;2023-08-06T10:40:40;1.17;;;0.40;;
2602;SDS011;1311;47.966;7.958;2023-08-06T10:43:11;0.53;;;0.30;;
2602;SDS011;1311;47.966;7.958;2023-08-06T10:45:51;1.77;;;0.40;;
2602;SDS011;1311;47.966;7.958;2023-08-06T10:48:28;0.50;;;0.30;;
2602;SDS011;1311;47.966;7.958;2023-08-06T10:50:56;0.80;;;0.40;;
2602;SDS011;1311;47.966;7.958;2023-08-06T10:53:23;0.40;;;0.30;;
2602;SDS011;1311;47.966;7.958;2023-08-06T10:55:49;0.60;;;0.30;;
2602;SDS011;1311;47.966;7.958;2023-08-06T10:58:18;0.50;;;0.30;;
2602;SDS011;1311;47.966;7.958;2023-08-06T11:00:45;0.60;;;0.47;;
2602;SDS011;1311;47.966;7.958;2023-08-06T11:03:12;0.40;;;0.20;;
2602;SDS011;1311;47.966;7.958;2023-08-06T11:05:39;0.50;;;0.30;;
2602;SDS011;1311;47.966;7.958;2023-08-06T11:08:06;0.60;;;0.40;;
2602;SDS011;1311;47.966;7.958;2023-08-06T11:10:32;0.50;;;0.30;;
2602;SDS011;1311;47.966;7.958;2023-08-06T11:13:00;0.60;;;0.50;;
2602;SDS011;1311;47.966;7.958;2023-08-06T11:15:28;0.63;;;0.30;;
2602;SDS011;1311;47.966;7.958;2023-08-06T11:17:56;0.70;;;0.33;;
2602;SDS011;1311;47.966;7.958;2023-08-06T11:20:24;0.60;;;0.40;;
2602;SDS011;1311;47.966;7.958;2023-08-06T11:22:51;0.60;;;0.30;;
2602;SDS011;1311;47.966;7.958;2023-08-06T11:25:20;0.63;;;0.40;;
2602;SDS011;1311;47.966;7.958;2023-08-06T11:27:47;0.50;;;0.40;;
2602;SDS011;1311;47.966;7.958;2023-08-06T11:30:15;0.50;;;0.30;;
2602;SDS011;1311;47.966;7.958;2023-08-06T11:32:46;0.50;;;0.40;;
2602;SDS011;1311;47.966;7.958;2023-08-06T11:35:13;1.30;;;0.30;;
2602;SDS011;1311;47.966;7.958;2023-08-06T11:37:43;0.50;;;0.30;;
2602;SDS011;1311;47.966;7.958;2023-08-06T11:40:11;0.70;;;0.30;;
2602;SDS011;1311;47.966;7.958;2023-08-06T11:42:39;0.40;;;0.30;;
2602;SDS011;1311;47.966;7.958;2023-08-06T11:45:07;0.50;;;0.30;;
2602;SDS011;1311;47.966;7.958;2023-08-06T11:47:37;0.57;;;0.33;;
2602;SDS011;1311;47.966;7.958;2023-08-06T11:50:06;0.60;;;0.40;;
2602;SDS011;1311;47.966;7.958;2023-08-06T11:52:33;0.60;;;0.30;;
2602;SDS011;1311;47.966;7.958;2023-08-06T11:55:01;0.60;;;0.33;;
2602;SDS011;1311;47.966;7.958;2023-08-06T11:57:31;0.60;;;0.40;;
2602;SDS011;1311;47.966;7.958;2023-08-06T12:00:01;0.70;;;0.30;;
2602;SDS011;1311;47.966;7.958;2023-08-06T12:02:30;0.93;;;0.50;;
2602;SDS011;1311;47.966;7.958;2023-08-06T12:05:02;0.50;;;0.30;;
2602;SDS011;1311;47.966;7.958;2023-08-06T12:07:32;0.80;;;0.40;;
2602;SDS011;1311;47.966;7.958;2023-08-06T12:10:02;0.50;;;0.40;;
2602;SDS011;1311;47.966;7.958;2023-08-06T12:12:29;0.70;;;0.40;;
2602;SDS011;1311;47.966;7.958;2023-08-06T12:14:56;0.63;;;0.40;;
2602;SDS011;1311;47.966;7.958;2023-08-06T12:17:24;0.50;;;0.40;;
2602;SDS011;1311;47.966;7.958;2023-08-06T12:19:51;0.50;;;0.30;;
2602;SDS011;1311;47.966;7.958;2023-08-06T12:22:18;0.70;;;0.30;;
2602;SDS011;1311;47.966;7.958;2023-08-06T12:24:46;0.50;;;0.40;;
2602;SDS011;1311;47.966;7.958;2023-08-06T12:27:15;0.60;;;0.40;;
2602;SDS011;1311;47.966;7.958;2023-08-06T12:29:42;1.33;;;0.43;;
2602;SDS011;1311;47.966;7.958;2023-08-06T12:32:10;1.10;;;0.60;;
2602;SDS011;1311;47.966;7.958;2023-08-06T12:34:37;0.87;;;0.57;;
2602;SDS011;1311;47.966;7.958;2023-08-06T12:37:04;0.60;;;0.40;;
2602;SDS011;1311;47.966;7.958;2023-08-06T12:39:32;0.70;;;0.50;;
2602;SDS011;1311;47.966;7.958;2023-08-06T12:42:00;0.67;;;0.50;;
2602;SDS011;1311;47.966;7.958;2023-08-06T12:44:27;0.70;;;0.50;;
2602;SDS011;1311;47.966;7.958;2023-08-06T12:46:54;0.70;;;0.47;;
2602;SDS011;1311;47.966;7.958;2023-08-06T12:49:21;1.10;;;0.57;;
2602;SDS011;1311;47.966;7.958;2023-08-06T12:51:49;0.50;;;0.40;;
2602;SDS011;1311;47.966;7.958;2023-08-06T12:54:17;0.70;;;0.50;;
2602;SDS011;1311;47.966;7.958;2023-08-06T12:56:44;0.60;;;0.60;;
2602;SDS011;1311;47.966;7.958;2023-08-06T12:59:13;0.70;;;0.50;;
2602;SDS011;1311;47.966;7.958;2023-08-06T13:01:41;1.00;;;0.60;;
2602;SDS011;1311;47.966;7.958;2023-08-06T13:04:09;1.40;;;0.50;;
2602;SDS011;1311;47.966;7.958;2023-08-06T13:06:36;1.10;;;0.60;;
2602;SDS011;1311;47.966;7.958;2023-08-06T13:09:05;1.30;;;0.50;;
2602;SDS011;1311;47.966;7.958;2023-08-06T13:11:33;1.20;;;0.43;;
2602;SDS011;1311;47.966;7.958;2023-08-06T13:14:03;0.77;;;0.60;;
2602;SDS011;1311;47.966;7.958;2023-08-06T13:16:32;0.70;;;0.40;;
2602;SDS011;1311;47.966;7.958;2023-08-06T13:18:59;1.67;;;0.50;;
2602;SDS011;1311;47.966;7.958;2023-08-06T13:21:31;0.90;;;0.60;;
2602;SDS011;1311;47.966;7.958;2023-08-06T13:24:00;1.40;;;0.73;;
2602;SDS011;1311;47.966;7.958;2023-08-06T13:26:27;0.67;;;0.50;;
2602;SDS011;1311;47.966;7.958;2023-08-06T13:28:54;0.60;;;0.47;;
2602;SDS011;1311;47.966;7.958;2023-08-06T13:31:20;1.90;;;0.60;;
2602;SDS011;1311;47.966;7.958;2023-08-06T13:33:49;1.20;;;0.60;;
2602;SDS011;1311;47.966;7.958;2023-08-06T13:36:15;0.90;;;0.60;;
2602;SDS011;1311;47.966;7.958;2023-08-06T13:38:42;0.50;;;0.40;;
2602;SDS011;1311;47.966;7.958;2023-08-06T13:41:09;0.70;;;0.50;;
2602;SDS011;1311;47.966;7.958;2023-08-06T13:43:36;0.67;;;0.60;;
2602;SDS011;1311;47.966;7.958;2023-08-06T13:46:03;0.70;;;0.60;;
2602;SDS011;1311;47.966;7.958;2023-08-06T13:48:29;1.10;;;0.53;;
2602;SDS011;1311;47.966;7.958;2023-08-06T13:50:57;0.90;;;0.60;;
2602;SDS011;1311;47.966;7.958;2023-08-06T13:53:24;0.50;;;0.50;;
2602;SDS011;1311;47.966;7.958;2023-08-06T13:55:54;0.87;;;0.67;;
2602;SDS011;1311;47.966;7.958;2023-08-06T13:58:21;1.63;;;0.60;;
2602;SDS011;1311;47.966;7.958;2023-08-06T14:00:48;1.03;;;0.60;;
2602;SDS011;1311;47.966;7.958;2023-08-06T14:03:17;1.00;;;0.63;;
2602;SDS011;1311;47.966;7.958;2023-08-06T14:05:44;0.90;;;0.70;;
2602;SDS011;1311;47.966;7.958;2023-08-06T14:08:12;1.30;;;0.80;;
2602;SDS011;1311;47.966;7.958;2023-08-06T14:10:39;3.03;;;0.53;;
2602;SDS011;1311;47.966;7.958;2023-08-06T14:13:06;1.27;;;0.73;;
2602;SDS011;1311;47.966;7.958;2023-08-06T14:15:33;0.97;;;0.70;;
2602;SDS011;1311;47.966;7.958;2023-08-06T14:17:59;0.80;;;0.60;;
2602;SDS011;1311;47.966;7.958;2023-08-06T14:20:26;1.53;;;0.87;;
2602;SDS011;1311;47.966;7.958;2023-08-06T14:22:53;0.70;;;0.70;;
2602;SDS011;1311;47.966;7.958;2023-08-06T14:25:21;1.10;;;0.70;;
2602;SDS011;1311;47.966;7.958;2023-08-06T14:27:48;0.80;;;0.70;;
2602;SDS011;1311;47.966;7.958;2023-08-06T14:30:15;0.80;;;0.70;;
2602;SDS011;1311;47.966;7.958;2023-08-06T14:32:41;1.63;;;0.93;;
2602;SDS011;1311;47.966;7.958;2023-08-06T14:35:08;1.00;;;0.80;;
2602;SDS011;1311;47.966;7.958;2023-08-06T14:37:35;2.03;;;0.83;;
2602;SDS011;1311;47.966;7.958;2023-08-06T14:40:02;1.73;;;0.90;;
2602;SDS011;1311;47.966;7.958;2023-08-06T14:42:30;1.13;;;0.87;;
2602;SDS011;1311;47.966;7.958;2023-08-06T14:44:58;2.10;;;0.93;;
2602;SDS011;1311;47.966;7.958;2023-08-06T14:47:24;0.93;;;0.80;;
2602;SDS011;1311;47.966;7.958;2023-08-06T14:49:51;0.90;;;0.80;;
2602;SDS011;1311;47.966;7.958;2023-08-06T14:52:18;1.00;;;0.77;;
2602;SDS011;1311;47.966;7.958;2023-08-06T14:54:45;0.90;;;0.77;;
2602;SDS011;1311;47.966;7.958;2023-08-06T14:57:12;1.43;;;0.70;;
2602;SDS011;1311;47.966;7.958;2023-08-06T14:59:41;1.23;;;0.70;;
2602;SDS011;1311;47.966;7.958;2023-08-06T15:02:08;1.03;;;0.60;;
2602;SDS011;1311;47.966;7.958;2023-08-06T15:04:34;1.80;;;0.93;;
2602;SDS011;1311;47.966;7.958;2023-08-06T15:07:01;1.53;;;0.73;;
2602;SDS011;1311;47.966;7.958;2023-08-06T15:09:28;1.17;;;0.70;;
2602;SDS011;1311;47.966;7.958;2023-08-06T15:11:55;0.90;;;0.80;;
2602;SDS011;1311;47.966;7.958;2023-08-06T15:14:22;0.60;;;0.53;;
2602;SDS011;1311;47.966;7.958;2023-08-06T15:16:50;1.10;;;0.73;;